Time,TemperatureF,DewpointF,PressureIn,WindDirection,WindDirectionDegrees,WindSpeedMPH,WindSpeedGustMPH,Humidity,HourlyPrecipIn,Conditions,Clouds,dailyrainin,SoftwareType,DateUTC
2013-05-07 00:02:00,51.0,23.0,-100.00,SW,220,13.0,14.0,33,-99.99,,,-99.99,,2013-05-07 06:02:00,
2013-05-07 00:11:00,48.0,24.0,-100.00,SW,215,11.0,14.0,39,-99.99,,,-99.99,,2013-05-07 06:11:00,
2013-05-07 00:21:00,48.0,25.0,-100.00,South,190,11.0,11.0,39,-99.99,,,-99.99,,2013-05-07 06:21:00,
2013-05-07 00:32:00,49.0,25.0,-100.00,SW,220,10.0,12.0,38,-99.99,,,-99.99,,2013-05-07 06:32:00,
2013-05-07 00:41:00,47.0,25.0,-100.00,SSE,165,9.0,11.0,41,-99.99,,,-99.99,,2013-05-07 06:41:00,
2013-05-07 00:52:00,47.0,26.0,-100.00,South,175,10.0,12.0,43,-99.99,,,-99.99,,2013-05-07 06:52:00,
2013-05-07 01:01:00,44.0,28.0,-100.00,South,180,11.0,12.0,52,-99.99,,,-99.99,,2013-05-07 07:01:00,
2013-05-07 01:11:00,44.0,28.0,-100.00,South,185,12.0,13.0,53,-99.99,,,-99.99,,2013-05-07 07:11:00,
2013-05-07 01:22:00,45.0,30.0,-100.00,SSW,195,12.0,12.0,55,-99.99,,,-99.99,,2013-05-07 07:22:00,
2013-05-07 01:31:00,46.0,29.0,-100.00,SSW,195,9.0,12.0,51,-99.99,,,-99.99,,2013-05-07 07:31:00,
2013-05-07 01:42:00,45.0,29.0,-100.00,South,190,10.0,11.0,52,-99.99,,,-99.99,,2013-05-07 07:42:00,
2013-05-07 01:52:00,45.0,28.0,-100.00,South,190,7.0,11.0,51,-99.99,,,-99.99,,2013-05-07 07:52:00,
2013-05-07 02:02:00,45.0,29.0,-100.00,SW,225,0.0,10.0,53,-99.99,,,-99.99,,2013-05-07 08:02:00,
2013-05-07 02:11:00,45.0,29.0,-100.00,SSE,165,3.0,7.0,52,-99.99,,,-99.99,,2013-05-07 08:11:00,
2013-05-07 02:21:00,45.0,28.0,-100.00,SSW,200,1.0,4.0,51,-99.99,,,-99.99,,2013-05-07 08:21:00,
2013-05-07 02:31:00,45.0,28.0,-100.00,SSE,160,6.0,6.0,51,-99.99,,,-99.99,,2013-05-07 08:31:00,
2013-05-07 02:41:00,44.0,28.0,-100.00,South,185,9.0,10.0,53,-99.99,,,-99.99,,2013-05-07 08:41:00,
2013-05-07 02:52:00,44.0,28.0,-100.00,SSE,165,9.0,11.0,52,-99.99,,,-99.99,,2013-05-07 08:52:00,
2013-05-07 03:01:00,44.0,28.0,-100.00,South,185,14.0,15.0,54,-99.99,,,-99.99,,2013-05-07 09:01:00,
2013-05-07 03:11:00,43.0,28.0,-100.00,South,190,13.0,16.0,55,-99.99,,,-99.99,,2013-05-07 09:11:00,
2013-05-07 03:22:00,45.0,28.0,-100.00,SW,215,4.0,11.0,49,-99.99,,,-99.99,,2013-05-07 09:22:00,
2013-05-07 03:33:00,47.0,27.0,-100.00,NW,315,1.0,6.0,45,-99.99,,,-99.99,,2013-05-07 09:33:00,
2013-05-07 03:42:00,46.0,27.0,-100.00,South,180,4.0,7.0,46,-99.99,,,-99.99,,2013-05-07 09:42:00,
2013-05-07 03:52:00,45.0,27.0,-100.00,South,185,5.0,6.0,50,-99.99,,,-99.99,,2013-05-07 09:52:00,
2013-05-07 04:02:00,44.0,27.0,-100.00,South,185,8.0,9.0,52,-99.99,,,-99.99,,2013-05-07 10:02:00,
2013-05-07 04:12:00,43.0,27.0,-100.00,South,185,6.0,9.0,54,-99.99,,,-99.99,,2013-05-07 10:12:00,
2013-05-07 04:22:00,43.0,28.0,-100.00,South,190,7.0,9.0,54,-99.99,,,-99.99,,2013-05-07 10:22:00,
2013-05-07 04:32:00,43.0,27.0,-100.00,South,185,6.0,7.0,53,-99.99,,,-99.99,,2013-05-07 10:32:00,
2013-05-07 04:42:00,43.0,27.0,-100.00,South,185,9.0,10.0,53,-99.99,,,-99.99,,2013-05-07 10:42:00,
2013-05-07 04:52:00,43.0,27.0,-100.00,South,185,8.0,9.0,53,-99.99,,,-99.99,,2013-05-07 10:52:00,
2013-05-07 05:02:00,44.0,27.0,-100.00,South,190,7.0,10.0,52,-99.99,,,-99.99,,2013-05-07 11:02:00,
2013-05-07 05:11:00,44.0,27.0,-100.00,SSW,195,8.0,9.0,52,-99.99,,,-99.99,,2013-05-07 11:11:00,
2013-05-07 05:21:00,44.0,27.0,-100.00,SSW,210,7.0,9.0,52,-99.99,,,-99.99,,2013-05-07 11:21:00,
2013-05-07 05:32:00,44.0,27.0,-100.00,South,190,2.0,7.0,51,-99.99,,,-99.99,,2013-05-07 11:32:00,
2013-05-07 05:42:00,43.0,27.0,-100.00,South,180,4.0,4.0,52,-99.99,,,-99.99,,2013-05-07 11:42:00,
2013-05-07 05:51:00,44.0,27.0,-100.00,South,190,7.0,8.0,51,-99.99,,,-99.99,,2013-05-07 11:51:00,
2013-05-07 06:01:00,43.0,27.0,-100.00,SSW,195,5.0,7.0,52,-99.99,,,-99.99,,2013-05-07 12:01:00,
2013-05-07 06:11:00,43.0,27.0,-100.00,South,180,4.0,6.0,53,-99.99,,,-99.99,,2013-05-07 12:11:00,
2013-05-07 06:21:00,42.0,27.0,-100.00,SSW,195,4.0,5.0,53,-99.99,,,-99.99,,2013-05-07 12:21:00,
2013-05-07 06:32:00,43.0,27.0,-100.00,SSE,165,4.0,6.0,51,-99.99,,,-99.99,,2013-05-07 12:32:00,
2013-05-07 06:41:00,44.0,27.0,-100.00,South,180,6.0,7.0,50,-99.99,,,-99.99,,2013-05-07 12:41:00,
2013-05-07 06:52:00,45.0,27.0,-100.00,SSE,160,6.0,6.0,49,-99.99,,,-99.99,,2013-05-07 12:52:00,
2013-05-07 07:01:00,45.0,27.0,-100.00,South,170,7.0,9.0,50,-99.99,,,-99.99,,2013-05-07 13:01:00,
2013-05-07 07:11:00,46.0,28.0,-100.00,South,170,5.0,9.0,49,-99.99,,,-99.99,,2013-05-07 13:11:00,
2013-05-07 07:21:00,45.0,27.0,-100.00,South,175,6.0,8.0,50,-99.99,,,-99.99,,2013-05-07 13:21:00,
2013-05-07 07:32:00,46.0,29.0,-100.00,SSE,150,6.0,7.0,50,-99.99,,,-99.99,,2013-05-07 13:32:00,
2013-05-07 07:42:00,46.0,29.0,-100.00,SSE,165,7.0,9.0,52,-99.99,,,-99.99,,2013-05-07 13:42:00,
2013-05-07 07:52:00,48.0,28.0,-100.00,South,180,7.0,9.0,46,-99.99,,,-99.99,,2013-05-07 13:52:00,
2013-05-07 08:01:00,49.0,29.0,-100.00,South,180,7.0,8.0,46,-99.99,,,-99.99,,2013-05-07 14:01:00,
2013-05-07 08:11:00,50.0,29.0,-100.00,South,175,7.0,9.0,44,-99.99,,,-99.99,,2013-05-07 14:11:00,
2013-05-07 08:21:00,51.0,30.0,-100.00,South,180,7.0,9.0,44,-99.99,,,-99.99,,2013-05-07 14:21:00,
2013-05-07 08:31:00,52.0,30.0,-100.00,South,180,7.0,9.0,42,-99.99,,,-99.99,,2013-05-07 14:31:00,
2013-05-07 08:42:00,54.0,29.0,-100.00,South,185,6.0,7.0,39,-99.99,,,-99.99,,2013-05-07 14:42:00,
2013-05-07 08:52:00,55.0,29.0,-100.00,South,185,6.0,6.0,35,-99.99,,,-99.99,,2013-05-07 14:52:00,
2013-05-07 09:01:00,56.0,29.0,-100.00,South,175,6.0,7.0,35,-99.99,,,-99.99,,2013-05-07 15:01:00,
2013-05-07 09:11:00,56.0,28.0,-100.00,South,185,6.0,7.0,33,-99.99,,,-99.99,,2013-05-07 15:11:00,
2013-05-07 09:21:00,58.0,29.0,-100.00,SSE,165,4.0,8.0,33,-99.99,,,-99.99,,2013-05-07 15:21:00,
2013-05-07 09:33:00,58.0,28.0,-100.00,SSE,165,4.0,7.0,31,-99.99,,,-99.99,,2013-05-07 15:33:00,
2013-05-07 09:42:00,59.0,28.0,-100.00,SSE,155,4.0,6.0,30,-99.99,,,-99.99,,2013-05-07 15:42:00,
2013-05-07 09:52:00,61.0,27.0,-100.00,ESE,115,2.0,7.0,27,-99.99,,,-99.99,,2013-05-07 15:52:00,
2013-05-07 10:03:00,62.0,26.0,-100.00,ESE,120,2.0,6.0,25,-99.99,,,-99.99,,2013-05-07 16:03:00,
2013-05-07 10:12:00,63.0,27.0,-100.00,ENE,65,4.0,6.0,24,-99.99,,,-99.99,,2013-05-07 16:12:00,
2013-05-07 10:22:00,62.0,26.0,-100.00,North,10,4.0,6.0,24,-99.99,,,-99.99,,2013-05-07 16:22:00,
2013-05-07 10:32:00,62.0,25.0,-100.00,North,0,3.0,7.0,24,-99.99,,,-99.99,,2013-05-07 16:32:00,
2013-05-07 10:41:00,62.0,24.0,-100.00,NNE,15,4.0,7.0,23,-99.99,,,-99.99,,2013-05-07 16:41:00,
2013-05-07 10:51:00,64.0,26.0,-100.00,NNE,30,6.0,7.0,23,-99.99,,,-99.99,,2013-05-07 16:51:00,
2013-05-07 11:01:00,63.0,23.0,-100.00,North,10,4.0,12.0,21,-99.99,,,-99.99,,2013-05-07 17:01:00,
2013-05-07 11:11:00,65.0,24.0,-100.00,SSW,200,2.0,7.0,21,-99.99,,,-99.99,,2013-05-07 17:11:00,
2013-05-07 11:21:00,65.0,24.0,-100.00,ESE,105,3.0,8.0,20,-99.99,,,-99.99,,2013-05-07 17:21:00,
2013-05-07 11:31:00,65.0,23.0,-100.00,North,0,1.0,7.0,20,-99.99,,,-99.99,,2013-05-07 17:31:00,
2013-05-07 11:41:00,64.0,22.0,-100.00,North,0,9.0,16.0,20,-99.99,,,-99.99,,2013-05-07 17:41:00,
2013-05-07 11:52:00,66.0,23.0,-100.00,NE,50,6.0,12.0,19,-99.99,,,-99.99,,2013-05-07 17:52:00,
2013-05-07 12:01:00,65.0,23.0,-100.00,NNE,30,11.0,16.0,19,-99.99,,,-99.99,,2013-05-07 18:01:00,
2013-05-07 12:21:00,64.0,22.0,-100.00,NE,50,9.0,15.0,19,-99.99,,,-99.99,,2013-05-07 18:21:00,
2013-05-07 12:31:00,63.0,20.0,-100.00,NNE,25,4.0,10.0,19,-99.99,,,-99.99,,2013-05-07 18:31:00,
2013-05-07 12:41:00,63.0,20.0,-100.00,NE,55,2.0,9.0,19,-99.99,,,-99.99,,2013-05-07 18:41:00,
2013-05-07 12:51:00,67.0,23.0,-100.00,ESE,110,2.0,6.0,18,-99.99,,,-99.99,,2013-05-07 18:51:00,
2013-05-07 13:02:00,63.0,20.0,-100.00,North,0,7.0,10.0,18,-99.99,,,-99.99,,2013-05-07 19:02:00,
2013-05-07 13:11:00,63.0,20.0,-100.00,NNE,15,9.0,14.0,19,-99.99,,,-99.99,,2013-05-07 19:11:00,
2013-05-07 13:21:00,64.0,22.0,-100.00,North,0,11.0,17.0,19,-99.99,,,-99.99,,2013-05-07 19:21:00,
2013-05-07 13:31:00,63.0,21.0,-100.00,North,5,14.0,18.0,19,-99.99,,,-99.99,,2013-05-07 19:31:00,
2013-05-07 13:41:00,62.0,21.0,-100.00,North,5,17.0,22.0,20,-99.99,,,-99.99,,2013-05-07 19:41:00,
2013-05-07 13:51:00,64.0,22.0,-100.00,North,5,16.0,20.0,20,-99.99,,,-99.99,,2013-05-07 19:51:00,
2013-05-07 14:01:00,63.0,22.0,-100.00,North,0,12.0,24.0,20,-99.99,,,-99.99,,2013-05-07 20:01:00,
2013-05-07 14:11:00,63.0,22.0,-100.00,North,0,12.0,24.0,20,-99.99,,,-99.99,,2013-05-07 20:11:00,
2013-05-07 14:21:00,64.0,23.0,-100.00,NNE,30,14.0,17.0,20,-99.99,,,-99.99,,2013-05-07 20:21:00,
2013-05-07 14:32:00,64.0,21.0,-100.00,NE,45,9.0,23.0,19,-99.99,,,-99.99,,2013-05-07 20:32:00,
2013-05-07 14:41:00,66.0,23.0,-100.00,North,0,14.0,21.0,19,-99.99,,,-99.99,,2013-05-07 20:41:00,
2013-05-07 14:51:00,65.0,21.0,-100.00,NNE,15,13.0,20.0,18,-99.99,,,-99.99,,2013-05-07 20:51:00,
2013-05-07 15:01:00,66.0,21.0,-100.00,NNE,20,7.0,14.0,17,-99.99,,,-99.99,,2013-05-07 21:01:00,
2013-05-07 15:11:00,66.0,21.0,-100.00,NNE,30,7.0,11.0,17,-99.99,,,-99.99,,2013-05-07 21:11:00,
2013-05-07 15:21:00,66.0,21.0,-100.00,NNE,20,10.0,13.0,17,-99.99,,,-99.99,,2013-05-07 21:21:00,
2013-05-07 15:32:00,67.0,22.0,-100.00,NNW,330,7.0,12.0,17,-99.99,,,-99.99,,2013-05-07 21:32:00,
2013-05-07 15:52:00,68.0,22.0,-100.00,NE,50,6.0,11.0,17,-99.99,,,-99.99,,2013-05-07 21:52:00,
2013-05-07 16:02:00,65.0,20.0,-100.00,ENE,60,9.0,13.0,17,-99.99,,,-99.99,,2013-05-07 22:02:00,
2013-05-07 16:12:00,66.0,20.0,-100.00,ENE,65,3.0,13.0,17,-99.99,,,-99.99,,2013-05-07 22:12:00,
2013-05-07 16:22:00,67.0,20.0,-100.00,NE,45,15.0,19.0,16,-99.99,,,-99.99,,2013-05-07 22:22:00,
2013-05-07 16:32:00,65.0,18.0,-100.00,NE,35,7.0,14.0,16,-99.99,,,-99.99,,2013-05-07 22:32:00,
2013-05-07 16:42:00,65.0,18.0,-100.00,North,0,4.0,9.0,16,-99.99,,,-99.99,,2013-05-07 22:42:00,
2013-05-07 16:52:00,67.0,18.0,-100.00,North,0,10.0,12.0,15,-99.99,,,-99.99,,2013-05-07 22:52:00,
2013-05-07 17:01:00,70.0,18.0,-100.00,NNW,340,6.0,9.0,13,-99.99,,,-99.99,,2013-05-07 23:01:00,
2013-05-07 17:11:00,68.0,17.0,-100.00,North,0,15.0,21.0,14,-99.99,,,-99.99,,2013-05-07 23:11:00,
2013-05-07 17:21:00,67.0,18.0,-100.00,North,0,12.0,20.0,15,-99.99,,,-99.99,,2013-05-07 23:21:00,
2013-05-07 17:32:00,67.0,18.0,-100.00,North,0,11.0,16.0,15,-99.99,,,-99.99,,2013-05-07 23:32:00,
2013-05-07 17:41:00,65.0,16.0,-100.00,North,0,15.0,24.0,15,-99.99,,,-99.99,,2013-05-07 23:41:00,
2013-05-07 17:52:00,66.0,17.0,-100.00,North,0,14.0,23.0,15,-99.99,,,-99.99,,2013-05-07 23:52:00,
2013-05-07 18:01:00,65.0,16.0,-100.00,North,350,13.0,17.0,14,-99.99,,,-99.99,,2013-05-08 00:01:00,
2013-05-07 18:11:00,65.0,16.0,-100.00,North,10,9.0,12.0,15,-99.99,,,-99.99,,2013-05-08 00:11:00,
2013-05-07 18:21:00,66.0,15.0,-100.00,North,0,7.0,11.0,13,-99.99,,,-99.99,,2013-05-08 00:21:00,
2013-05-07 18:32:00,65.0,14.0,-100.00,NNW,335,15.0,19.0,13,-99.99,,,-99.99,,2013-05-08 00:32:00,
2013-05-07 18:41:00,66.0,14.0,-100.00,North,350,12.0,19.0,13,-99.99,,,-99.99,,2013-05-08 00:41:00,
2013-05-07 18:51:00,63.0,14.0,-100.00,North,5,12.0,17.0,14,-99.99,,,-99.99,,2013-05-08 00:51:00,
2013-05-07 19:02:00,63.0,13.0,-100.00,North,0,13.0,20.0,13,-99.99,,,-99.99,,2013-05-08 01:02:00,
2013-05-07 19:11:00,63.0,13.0,-100.00,North,5,14.0,19.0,14,-99.99,,,-99.99,,2013-05-08 01:11:00,
2013-05-07 19:21:00,62.0,14.0,-100.00,North,5,13.0,16.0,15,-99.99,,,-99.99,,2013-05-08 01:21:00,
2013-05-07 19:31:00,64.0,13.0,-100.00,North,5,11.0,16.0,13,-99.99,,,-99.99,,2013-05-08 01:31:00,
2013-05-07 19:41:00,64.0,14.0,-100.00,North,0,9.0,14.0,14,-99.99,,,-99.99,,2013-05-08 01:41:00,
2013-05-07 19:52:00,63.0,17.0,-100.00,NNE,15,21.0,26.0,16,-99.99,,,-99.99,,2013-05-08 01:52:00,
2013-05-07 20:01:00,62.0,18.0,-100.00,NNE,15,16.0,27.0,18,-99.99,,,-99.99,,2013-05-08 02:01:00,
2013-05-07 20:11:00,62.0,18.0,-100.00,NNE,20,14.0,21.0,18,-99.99,,,-99.99,,2013-05-08 02:11:00,
2013-05-07 20:21:00,60.0,18.0,-100.00,NNE,25,11.0,17.0,19,-99.99,,,-99.99,,2013-05-08 02:21:00,
2013-05-07 20:31:00,60.0,19.0,-100.00,NE,35,14.0,17.0,19,-99.99,,,-99.99,,2013-05-08 02:31:00,
2013-05-07 20:42:00,60.0,19.0,-100.00,NE,55,11.0,17.0,19,-99.99,,,-99.99,,2013-05-08 02:42:00,
2013-05-07 20:51:00,60.0,20.0,-100.00,ENE,75,7.0,12.0,21,-99.99,,,-99.99,,2013-05-08 02:51:00,
2013-05-07 21:01:00,60.0,20.0,-100.00,East,80,10.0,13.0,21,-99.99,,,-99.99,,2013-05-08 03:01:00,
2013-05-07 21:11:00,60.0,20.0,-100.00,ENE,75,13.0,17.0,21,-99.99,,,-99.99,,2013-05-08 03:11:00,
2013-05-07 21:21:00,59.0,20.0,-100.00,East,85,12.0,16.0,21,-99.99,,,-99.99,,2013-05-08 03:21:00,
2013-05-07 21:32:00,60.0,20.0,-100.00,ENE,65,16.0,19.0,21,-99.99,,,-99.99,,2013-05-08 03:32:00,
2013-05-07 21:43:00,60.0,20.0,-100.00,NE,55,12.0,17.0,21,-99.99,,,-99.99,,2013-05-08 03:43:00,
2013-05-07 21:52:00,60.0,20.0,-100.00,ENE,70,9.0,16.0,21,-99.99,,,-99.99,,2013-05-08 03:52:00,
2013-05-07 22:02:00,58.0,19.0,-100.00,East,100,10.0,11.0,21,-99.99,,,-99.99,,2013-05-08 04:02:00,
2013-05-07 22:12:00,57.0,20.0,-100.00,East,100,6.0,11.0,23,-99.99,,,-99.99,,2013-05-08 04:12:00,
2013-05-07 22:22:00,56.0,20.0,-100.00,SW,225,1.0,3.0,24,-99.99,,,-99.99,,2013-05-08 04:22:00,
2013-05-07 22:32:00,56.0,20.0,-100.00,SE,125,0.0,3.0,24,-99.99,,,-99.99,,2013-05-08 04:32:00,
2013-05-07 22:42:00,55.0,20.0,-100.00,SE,145,1.0,2.0,24,-99.99,,,-99.99,,2013-05-08 04:42:00,
2013-05-07 22:52:00,54.0,20.0,-100.00,SSE,150,0.0,2.0,25,-99.99,,,-99.99,,2013-05-08 04:52:00,
2013-05-07 23:02:00,54.0,20.0,-100.00,South,190,0.0,1.0,25,-99.99,,,-99.99,,2013-05-08 05:02:00,
2013-05-07 23:12:00,54.0,20.0,-100.00,SE,125,0.0,1.0,25,-99.99,,,-99.99,,2013-05-08 05:12:00,
2013-05-07 23:22:00,52.0,20.0,-100.00,SW,220,2.0,2.0,27,-99.99,,,-99.99,,2013-05-08 05:22:00,
2013-05-07 23:32:00,51.0,22.0,-100.00,West,275,5.0,6.0,31,-99.99,,,-99.99,,2013-05-08 05:32:00,
2013-05-07 23:42:00,51.0,24.0,-100.00,WNW,290,8.0,9.0,35,-99.99,,,-99.99,,2013-05-08 05:42:00,
2013-05-07 23:52:00,53.0,24.0,-100.00,NW,305,6.0,9.0,33,-99.99,,,-99.99,,2013-05-08 05:52:00,